Time,TemperatureF,DewpointF,PressureIn,WindDirection,WindDirectionDegrees,WindSpeedMPH,WindSpeedGustMPH,Humidity,HourlyPrecipIn,Conditions,Clouds,dailyrainin,SoftwareType,DateUTC
2013-12-28 00:01:00,32.1,24.0,30.44,ENE,76,0.0,0.0,72,0.00,,,0.00,weatherlink.com 1.10,2013-12-28 05:01:00,
2013-12-28 00:16:00,31.5,24.0,30.44,ENE,76,0.0,1.0,74,0.00,,,0.00,weatherlink.com 1.10,2013-12-28 05:16:00,
2013-12-28 00:31:00,31.3,24.0,30.43,ENE,76,0.0,1.0,74,0.00,,,0.00,weatherlink.com 1.10,2013-12-28 05:31:00,
2013-12-28 00:46:00,32.3,24.0,30.43,ENE,76,0.0,0.0,72,0.00,,,0.00,weatherlink.com 1.10,2013-12-28 05:46:00,
2013-12-28 01:01:00,32.7,24.0,30.43,ENE,76,0.0,0.0,70,0.00,,,0.00,weatherlink.com 1.10,2013-12-28 06:01:00,
2013-12-28 01:16:00,32.6,24.0,30.43,ENE,76,0.0,0.0,71,0.00,,,0.00,weatherlink.com 1.10,2013-12-28 06:16:00,
2013-12-28 01:31:00,32.0,24.0,30.43,ENE,76,0.0,0.0,72,0.00,,,0.00,weatherlink.com 1.10,2013-12-28 06:31:00,
2013-12-28 01:46:00,30.7,24.0,30.43,ENE,76,0.0,0.0,75,0.00,,,0.00,weatherlink.com 1.10,2013-12-28 06:46:00,
2013-12-28 02:01:00,30.4,24.0,30.43,ENE,76,1.0,1.0,76,0.00,,,0.00,weatherlink.com 1.10,2013-12-28 07:01:00,
2013-12-28 02:16:00,29.8,24.0,30.42,ENE,76,0.0,1.0,79,0.00,,,0.00,weatherlink.com 1.10,2013-12-28 07:16:00,
2013-12-28 02:31:00,29.9,24.0,30.42,ENE,76,0.0,1.0,77,0.00,,,0.00,weatherlink.com 1.10,2013-12-28 07:31:00,
2013-12-28 02:46:00,28.4,23.0,30.43,ENE,76,2.0,2.0,80,0.00,,,0.00,weatherlink.com 1.10,2013-12-28 07:46:00,
2013-12-28 03:01:00,29.6,24.0,30.42,ENE,76,0.0,1.0,80,0.00,,,0.00,weatherlink.com 1.10,2013-12-28 08:01:00,
2013-12-28 03:16:00,29.9,24.0,30.42,ENE,76,0.0,0.0,77,0.00,,,0.00,weatherlink.com 1.10,2013-12-28 08:16:00,
2013-12-28 03:31:00,30.9,24.0,30.41,ENE,76,0.0,0.0,76,0.00,,,0.00,weatherlink.com 1.10,2013-12-28 08:31:00,
2013-12-28 03:46:00,30.0,24.0,30.41,ENE,76,0.0,0.0,77,0.00,,,0.00,weatherlink.com 1.10,2013-12-28 08:46:00,
2013-12-28 04:01:00,29.8,24.0,30.41,ENE,73,2.0,3.0,79,0.00,,,0.00,weatherlink.com 1.10,2013-12-28 09:01:00,
2013-12-28 04:16:00,31.0,24.0,30.41,ENE,73,0.0,0.0,76,0.00,,,0.00,weatherlink.com 1.10,2013-12-28 09:16:00,
2013-12-28 04:31:00,30.2,24.0,30.41,ENE,73,0.0,0.0,76,0.00,,,0.00,weatherlink.com 1.10,2013-12-28 09:31:00,
2013-12-28 04:46:00,29.0,23.0,30.41,ENE,73,0.0,0.0,79,0.00,,,0.00,weatherlink.com 1.10,2013-12-28 09:46:00,
2013-12-28 05:01:00,27.7,23.0,30.41,ENE,73,0.0,0.0,81,0.00,,,0.00,weatherlink.com 1.10,2013-12-28 10:01:00,
2013-12-28 05:16:00,28.4,24.0,30.40,ENE,73,1.0,3.0,83,0.00,,,0.00,weatherlink.com 1.10,2013-12-28 10:16:00,
2013-12-28 05:31:00,28.8,23.0,30.41,ENE,73,0.0,2.0,79,0.00,,,0.00,weatherlink.com 1.10,2013-12-28 10:31:00,
2013-12-28 05:46:00,28.4,23.0,30.40,ENE,73,0.0,3.0,81,0.00,,,0.00,weatherlink.com 1.10,2013-12-28 10:46:00,
2013-12-28 06:01:00,29.5,24.0,30.40,ENE,57,1.0,3.0,79,0.00,,,0.00,weatherlink.com 1.10,2013-12-28 11:01:00,
2013-12-28 06:16:00,29.2,23.0,30.41,ENE,57,2.0,2.0,79,0.00,,,0.00,weatherlink.com 1.10,2013-12-28 11:16:00,
2013-12-28 06:31:00,27.5,23.0,30.42,East,97,0.0,2.0,83,0.00,,,0.00,weatherlink.com 1.10,2013-12-28 11:31:00,
2013-12-28 06:47:00,26.6,22.0,30.42,East,97,0.0,1.0,83,0.00,,,0.00,weatherlink.com 1.10,2013-12-28 11:47:00,
2013-12-28 07:02:00,27.4,24.0,30.41,NNE,13,2.0,2.0,85,0.00,,,0.00,weatherlink.com 1.10,2013-12-28 12:02:00,
2013-12-28 07:17:00,28.5,24.0,30.41,NNE,16,2.0,3.0,82,0.00,,,0.00,weatherlink.com 1.10,2013-12-28 12:17:00,
2013-12-28 07:32:00,28.9,24.0,30.41,NNE,17,1.0,3.0,81,0.00,,,0.00,weatherlink.com 1.10,2013-12-28 12:32:00,
2013-12-28 07:47:00,28.4,23.0,30.41,NNE,17,0.0,2.0,81,0.00,,,0.00,weatherlink.com 1.10,2013-12-28 12:47:00,
2013-12-28 08:02:00,28.1,23.0,30.41,NNE,17,0.0,0.0,82,0.00,,,0.00,weatherlink.com 1.10,2013-12-28 13:02:00,
2013-12-28 08:17:00,30.3,25.0,30.41,NNE,17,0.0,3.0,79,0.00,,,0.00,weatherlink.com 1.10,2013-12-28 13:17:00,
2013-12-28 08:32:00,33.2,25.0,30.42,NNE,17,0.0,0.0,73,0.00,,,0.00,weatherlink.com 1.10,2013-12-28 13:32:00,
2013-12-28 08:47:00,34.6,27.0,30.42,NNE,17,0.0,0.0,75,0.00,,,0.00,weatherlink.com 1.10,2013-12-28 13:47:00,
2013-12-28 09:02:00,33.8,27.0,30.42,NNE,17,0.0,1.0,77,0.00,,,0.00,weatherlink.com 1.10,2013-12-28 14:02:00,
2013-12-28 09:17:00,34.3,29.0,30.42,NNE,17,0.0,0.0,81,0.00,,,0.00,weatherlink.com 1.10,2013-12-28 14:17:00,
2013-12-28 09:32:00,34.8,29.0,30.44,NNE,17,0.0,2.0,80,0.00,,,0.00,weatherlink.com 1.10,2013-12-28 14:32:00,
2013-12-28 09:47:00,35.4,29.0,30.45,NNE,17,0.0,1.0,77,0.00,,,0.00,weatherlink.com 1.10,2013-12-28 14:47:00,
2013-12-28 10:02:00,35.6,29.0,30.44,NNE,17,0.0,1.0,78,0.00,,,0.00,weatherlink.com 1.10,2013-12-28 15:02:00,
2013-12-28 10:17:00,37.1,30.0,30.43,NNE,17,0.0,2.0,74,0.00,,,0.00,weatherlink.com 1.10,2013-12-28 15:17:00,
2013-12-28 10:32:00,38.7,30.0,30.44,NNE,17,0.0,1.0,71,0.00,,,0.00,weatherlink.com 1.10,2013-12-28 15:32:00,
2013-12-28 10:48:00,39.7,32.0,30.43,NE,37,0.0,1.0,74,0.00,,,0.00,weatherlink.com 1.10,2013-12-28 15:48:00,
2013-12-28 11:02:00,40.7,32.0,30.42,NE,37,0.0,1.0,70,0.00,,,0.00,weatherlink.com 1.10,2013-12-28 16:02:00,
2013-12-28 11:17:00,42.3,33.0,30.41,NE,37,1.0,1.0,69,0.00,,,0.00,weatherlink.com 1.10,2013-12-28 16:17:00,
2013-12-28 11:32:00,44.1,33.0,30.41,SE,129,0.0,2.0,64,0.00,,,0.00,weatherlink.com 1.10,2013-12-28 16:32:00,
2013-12-28 11:47:00,46.8,32.0,30.39,South,180,1.0,4.0,57,0.00,,,0.00,weatherlink.com 1.10,2013-12-28 16:47:00,
2013-12-28 12:02:00,47.4,31.0,30.37,South,181,1.0,3.0,53,0.00,,,0.00,weatherlink.com 1.10,2013-12-28 17:02:00,
2013-12-28 12:17:00,48.0,31.0,30.36,South,179,2.0,3.0,53,0.00,,,0.00,weatherlink.com 1.10,2013-12-28 17:17:00,
2013-12-28 12:33:00,48.3,32.0,30.36,SSW,204,2.0,3.0,53,0.00,,,0.00,weatherlink.com 1.10,2013-12-28 17:33:00,
2013-12-28 12:48:00,48.1,30.0,30.36,WSW,241,2.0,5.0,50,0.00,,,0.00,weatherlink.com 1.10,2013-12-28 17:48:00,
2013-12-28 13:03:00,47.5,30.0,30.37,SW,220,1.0,7.0,52,0.00,,,0.00,weatherlink.com 1.10,2013-12-28 18:03:00,
2013-12-28 13:18:00,47.1,30.0,30.36,WSW,251,3.0,5.0,52,0.00,,,0.00,weatherlink.com 1.10,2013-12-28 18:18:00,
2013-12-28 13:33:00,47.1,31.0,30.36,SW,226,1.0,6.0,54,0.00,,,0.00,weatherlink.com 1.10,2013-12-28 18:33:00,
2013-12-28 13:48:00,46.9,32.0,30.36,SW,233,0.0,5.0,56,0.00,,,0.00,weatherlink.com 1.10,2013-12-28 18:48:00,
2013-12-28 14:03:00,46.9,32.0,30.35,SW,228,0.0,3.0,57,0.00,,,0.00,weatherlink.com 1.10,2013-12-28 19:03:00,
2013-12-28 14:17:00,47.1,32.0,30.34,SE,143,0.0,3.0,56,0.00,,,0.00,weatherlink.com 1.10,2013-12-28 19:17:00,
2013-12-28 14:33:00,47.1,32.0,30.33,SE,143,0.0,0.0,57,0.00,,,0.00,weatherlink.com 1.10,2013-12-28 19:33:00,
2013-12-28 14:48:00,47.1,33.0,30.31,SE,127,3.0,5.0,58,0.00,,,0.00,weatherlink.com 1.10,2013-12-28 19:48:00,
2013-12-28 15:03:00,46.5,33.0,30.31,SE,140,0.0,2.0,60,0.00,,,0.00,weatherlink.com 1.10,2013-12-28 20:03:00,
2013-12-28 15:18:00,46.7,32.0,30.31,SE,140,1.0,3.0,58,0.00,,,0.00,weatherlink.com 1.10,2013-12-28 20:18:00,
2013-12-28 15:33:00,46.9,32.0,30.30,ENE,68,3.0,3.0,57,0.00,,,0.00,weatherlink.com 1.10,2013-12-28 20:33:00,
2013-12-28 15:48:00,46.7,32.0,30.31,SSW,196,1.0,3.0,58,0.00,,,0.00,weatherlink.com 1.10,2013-12-28 20:48:00,
2013-12-28 16:03:00,46.0,33.0,30.30,SSE,155,1.0,3.0,62,0.00,,,0.00,weatherlink.com 1.10,2013-12-28 21:03:00,
2013-12-28 16:18:00,45.6,33.0,30.30,SSW,192,0.0,2.0,62,0.00,,,0.00,weatherlink.com 1.10,2013-12-28 21:18:00,
2013-12-28 16:33:00,45.5,33.0,30.31,SW,224,2.0,3.0,63,0.00,,,0.00,weatherlink.com 1.10,2013-12-28 21:33:00,
2013-12-28 16:48:00,45.4,34.0,30.30,SE,143,0.0,3.0,65,0.00,,,0.00,weatherlink.com 1.10,2013-12-28 21:48:00,
2013-12-28 17:03:00,44.8,35.0,30.28,NNE,18,4.0,4.0,68,0.00,,,0.00,weatherlink.com 1.10,2013-12-28 22:03:00,
2013-12-28 17:18:00,44.5,35.0,30.27,NNE,31,2.0,4.0,69,0.00,,,0.00,weatherlink.com 1.10,2013-12-28 22:18:00,
2013-12-28 17:33:00,43.9,36.0,30.27,NE,54,0.0,2.0,74,0.00,,,0.00,weatherlink.com 1.10,2013-12-28 22:33:00,
2013-12-28 17:48:00,43.4,36.0,30.27,SW,234,0.0,2.0,75,0.00,,,0.00,weatherlink.com 1.10,2013-12-28 22:48:00,
2013-12-28 18:03:00,43.4,35.0,30.27,SW,234,1.0,1.0,72,0.00,,,0.00,weatherlink.com 1.10,2013-12-28 23:03:00,
2013-12-28 18:18:00,43.4,35.0,30.26,WSW,237,0.0,2.0,73,0.00,,,0.00,weatherlink.com 1.10,2013-12-28 23:18:00,
2013-12-28 18:33:00,43.6,36.0,30.25,WSW,237,0.0,1.0,74,0.00,,,0.00,weatherlink.com 1.10,2013-12-28 23:33:00,
2013-12-28 18:48:00,43.2,37.0,30.24,WSW,237,0.0,1.0,78,0.00,,,0.00,weatherlink.com 1.10,2013-12-28 23:48:00,
2013-12-28 19:03:00,42.0,38.0,30.25,WSW,237,0.0,2.0,84,0.00,,,0.00,weatherlink.com 1.10,2013-12-29 00:03:00,
2013-12-28 19:18:00,41.9,38.0,30.25,WSW,237,0.0,1.0,86,0.00,,,0.00,weatherlink.com 1.10,2013-12-29 00:18:00,
2013-12-28 19:33:00,42.0,37.0,30.25,WSW,237,0.0,1.0,81,0.00,,,0.00,weatherlink.com 1.10,2013-12-29 00:33:00,
2013-12-28 19:48:00,42.0,37.0,30.24,WSW,237,0.0,1.0,82,0.00,,,0.00,weatherlink.com 1.10,2013-12-29 00:48:00,
2013-12-28 20:03:00,42.0,38.0,30.23,SW,236,0.0,2.0,86,0.00,,,0.00,weatherlink.com 1.10,2013-12-29 01:03:00,
2013-12-28 20:18:00,41.7,38.0,30.23,East,87,0.0,2.0,87,0.00,,,0.00,weatherlink.com 1.10,2013-12-29 01:18:00,
2013-12-28 20:33:00,41.8,39.0,30.25,East,87,1.0,2.0,89,0.00,,,0.00,weatherlink.com 1.10,2013-12-29 01:33:00,
2013-12-28 20:48:00,41.7,38.0,30.25,East,81,2.0,2.0,88,0.00,,,0.00,weatherlink.com 1.10,2013-12-29 01:48:00,
2013-12-28 21:03:00,41.5,39.0,30.25,SE,145,1.0,4.0,90,0.01,,,0.01,weatherlink.com 1.10,2013-12-29 02:03:00,
2013-12-28 21:18:00,41.2,39.0,30.24,SE,145,0.0,2.0,91,0.01,,,0.01,weatherlink.com 1.10,2013-12-29 02:18:00,
2013-12-28 21:33:00,41.1,39.0,30.26,WSW,256,1.0,2.0,93,0.02,,,0.02,weatherlink.com 1.10,2013-12-29 02:33:00,
2013-12-28 21:48:00,40.6,39.0,30.26,West,274,0.0,5.0,93,0.04,,,0.04,weatherlink.com 1.10,2013-12-29 02:48:00,
2013-12-28 22:03:00,40.7,39.0,30.24,NNE,23,3.0,4.0,94,0.04,,,0.05,weatherlink.com 1.10,2013-12-29 03:03:00,
2013-12-28 22:18:00,40.9,40.0,30.24,NNE,25,1.0,2.0,95,0.04,,,0.06,weatherlink.com 1.10,2013-12-29 03:18:00,
2013-12-28 22:33:00,40.8,40.0,30.23,SE,135,1.0,5.0,95,0.05,,,0.07,weatherlink.com 1.10,2013-12-29 03:33:00,
2013-12-28 22:48:00,40.7,40.0,30.22,SE,133,0.0,2.0,96,0.05,,,0.09,weatherlink.com 1.10,2013-12-29 03:48:00,
2013-12-28 23:03:00,40.6,40.0,30.21,SE,124,0.0,2.0,96,0.05,,,0.10,weatherlink.com 1.10,2013-12-29 04:03:00,
2013-12-28 23:18:00,40.5,40.0,30.21,South,171,0.0,2.0,96,0.06,,,0.12,weatherlink.com 1.10,2013-12-29 04:18:00,
2013-12-28 23:33:00,40.5,40.0,30.19,South,170,0.0,0.0,96,0.09,,,0.16,weatherlink.com 1.10,2013-12-29 04:33:00,
2013-12-28 23:48:00,40.4,39.0,30.17,SE,141,0.0,3.0,96,0.11,,,0.20,weatherlink.com 1.10,2013-12-29 04:48:00,